createdAt,value
2017-09-16T00:01:16.037Z,99.90
2017-09-16T00:03:50.342Z,99.90
2017-09-16T00:06:17.073Z,99.90
2017-09-16T00:09:04.466Z,99.90
2017-09-16T00:11:35.123Z,99.90
2017-09-16T00:14:04.629Z,99.90
2017-09-16T00:16:30.724Z,99.90
2017-09-16T00:18:57.711Z,99.90
2017-09-16T00:21:23.758Z,99.90
2017-09-16T00:23:50.498Z,99.90
2017-09-16T00:26:21.241Z,99.90
2017-09-16T00:28:47.897Z,99.90
2017-09-16T00:31:21.192Z,99.90
2017-09-16T00:33:48.929Z,99.90
2017-09-16T00:36:14.966Z,99.90
2017-09-16T00:38:41.022Z,99.90
2017-09-16T00:41:09.794Z,99.90
2017-09-16T00:43:38.477Z,99.90
2017-09-16T00:46:12.427Z,99.90
2017-09-16T00:48:44.255Z,99.90
2017-09-16T00:51:10.278Z,99.90
2017-09-16T00:53:40.710Z,99.90
2017-09-16T00:56:11.022Z,99.90
2017-09-16T00:58:37.073Z,99.90
2017-09-16T01:01:05.782Z,99.90
2017-09-16T01:03:39.198Z,99.90
2017-09-16T01:06:10.689Z,99.90
2017-09-16T01:08:36.718Z,99.90
2017-09-16T01:11:05.438Z,99.90
2017-09-16T01:13:32.165Z,99.90
2017-09-16T01:15:58.105Z,99.90
2017-09-16T01:18:24.838Z,99.90
2017-09-16T01:20:50.893Z,99.90
2017-09-16T01:23:17.602Z,99.90
2017-09-16T01:25:47.361Z,99.90
2017-09-16T01:28:20.842Z,99.90
2017-09-16T01:30:53.301Z,99.90
2017-09-16T01:33:19.345Z,99.90
2017-09-16T01:35:45.377Z,99.90
2017-09-16T01:38:11.305Z,99.90
2017-09-16T01:40:43.561Z,99.90
2017-09-16T01:43:09.599Z,99.90
2017-09-16T01:45:35.626Z,99.90
2017-09-16T01:48:01.649Z,99.90
2017-09-16T01:50:30.946Z,99.90
2017-09-16T01:52:56.888Z,99.90
2017-09-16T01:55:22.915Z,99.90
2017-09-16T01:57:52.642Z,99.90
2017-09-16T02:00:30.957Z,99.90
2017-09-16T02:02:58.698Z,99.90
2017-09-16T02:05:24.605Z,99.90
2017-09-16T02:07:51.582Z,99.90
2017-09-16T02:10:17.606Z,99.90
2017-09-16T02:12:43.653Z,99.90
2017-09-16T02:15:09.589Z,99.90
2017-09-16T02:17:38.365Z,99.90
2017-09-16T02:20:04.398Z,99.90
2017-09-16T02:22:32.370Z,99.90
2017-09-16T02:24:58.389Z,99.90
2017-09-16T02:27:24.441Z,99.90
2017-09-16T02:29:50.461Z,99.90
2017-09-16T02:32:20.066Z,99.90
2017-09-16T02:34:47.027Z,99.90
2017-09-16T02:37:13.692Z,99.90
2017-09-16T02:39:40.705Z,99.90
2017-09-16T02:42:06.754Z,99.90
2017-09-16T02:44:44.360Z,99.90
2017-09-16T02:47:12.106Z,99.90
2017-09-16T02:49:39.049Z,99.90
2017-09-16T02:52:05.093Z,99.90
2017-09-16T02:54:42.581Z,99.90
2017-09-16T02:57:13.929Z,99.90
2017-09-16T02:59:39.966Z,99.90
2017-09-16T03:02:06.630Z,99.90
2017-09-16T03:04:39.597Z,99.90
2017-09-16T03:07:13.214Z,99.90
2017-09-16T03:09:41.973Z,99.90
2017-09-16T03:12:08.019Z,99.90
2017-09-16T03:14:33.925Z,99.90
2017-09-16T03:16:59.987Z,99.90
2017-09-16T03:19:26.712Z,99.90
2017-09-16T03:21:52.727Z,99.90
2017-09-16T03:24:18.662Z,99.90
2017-09-16T03:26:44.701Z,99.90
2017-09-16T03:29:10.724Z,99.90
2017-09-16T03:31:36.745Z,99.90
2017-09-16T03:34:02.786Z,99.90
2017-09-16T03:36:28.814Z,99.90
2017-09-16T03:38:54.909Z,99.90
2017-09-16T03:41:31.742Z,99.90
2017-09-16T03:43:58.469Z,99.90
2017-09-16T03:46:24.534Z,99.90
2017-09-16T03:48:51.570Z,99.90
2017-09-16T03:51:18.282Z,99.90
2017-09-16T03:53:44.229Z,99.90
2017-09-16T03:56:14.581Z,99.90
2017-09-16T03:58:43.337Z,99.90
2017-09-16T04:01:09.373Z,99.90
2017-09-16T04:03:35.310Z,99.90
2017-09-16T04:06:02.262Z,99.90
2017-09-16T04:08:30.947Z,99.90
2017-09-16T04:10:58.931Z,99.90
2017-09-16T04:13:25.662Z,99.90
2017-09-16T04:15:51.687Z,99.90
2017-09-16T04:18:17.714Z,99.90
2017-09-16T04:20:43.649Z,99.90
2017-09-16T04:23:12.765Z,99.90
2017-09-16T04:25:40.517Z,99.90
2017-09-16T04:28:07.458Z,99.90
2017-09-16T04:30:35.429Z,99.90
2017-09-16T04:33:11.968Z,99.90
2017-09-16T04:35:41.612Z,99.90
2017-09-16T04:38:08.494Z,99.90
2017-09-16T04:40:38.372Z,99.90
2017-09-16T04:43:05.345Z,99.90
2017-09-16T04:45:38.362Z,99.90
2017-09-16T04:48:06.098Z,99.90
2017-09-16T04:50:33.142Z,99.90
2017-09-16T04:52:59.177Z,99.90
2017-09-16T04:55:25.190Z,99.90
2017-09-16T04:57:53.189Z,99.90
2017-09-16T05:00:23.910Z,99.90
2017-09-16T05:02:50.861Z,99.90
2017-09-16T05:05:16.889Z,99.90
2017-09-16T05:07:42.970Z,99.90
2017-09-16T05:10:09.981Z,99.90
2017-09-16T05:12:36.023Z,99.90
2017-09-16T05:15:02.819Z,99.90
2017-09-16T05:17:31.991Z,99.90
2017-09-16T05:19:57.925Z,99.90
2017-09-16T05:22:24.940Z,99.90
2017-09-16T05:24:51.897Z,99.90
2017-09-16T05:27:20.690Z,99.90
2017-09-16T05:29:47.645Z,99.90
2017-09-16T05:32:25.962Z,99.90
2017-09-16T05:34:59.561Z,99.90
2017-09-16T05:37:26.225Z,99.90
2017-09-16T05:39:52.213Z,99.90
2017-09-16T05:42:18.237Z,99.90
2017-09-16T05:44:44.340Z,99.90
2017-09-16T05:47:11.325Z,99.90
2017-09-16T05:49:37.349Z,99.90
2017-09-16T05:52:03.394Z,99.90
2017-09-16T05:54:33.317Z,99.90
2017-09-16T05:57:07.672Z,99.90
2017-09-16T05:59:34.681Z,99.90
2017-09-16T06:02:01.650Z,99.90
2017-09-16T06:04:33.297Z,99.90
2017-09-16T06:07:01.974Z,99.90
2017-09-16T06:09:28.027Z,99.90
2017-09-16T06:11:58.536Z,99.90
2017-09-16T06:14:31.062Z,99.90
2017-09-16T06:17:03.917Z,99.90
2017-09-16T06:19:30.950Z,99.90
2017-09-16T06:22:08.049Z,99.90
2017-09-16T06:24:40.602Z,99.90
2017-09-16T06:27:12.376Z,99.90
2017-09-16T06:29:40.345Z,99.90
2017-09-16T06:32:06.394Z,99.90
2017-09-16T06:34:33.139Z,99.90
2017-09-16T06:37:07.769Z,99.90
2017-09-16T06:39:35.517Z,99.90
2017-09-16T06:42:02.464Z,99.90
2017-09-16T06:44:35.899Z,99.90
2017-09-16T06:47:05.670Z,99.90
2017-09-16T06:49:32.781Z,99.90
2017-09-16T06:52:04.994Z,99.90
2017-09-16T06:54:31.052Z,99.90
2017-09-16T06:57:04.869Z,99.90
2017-09-16T06:59:42.349Z,99.90
2017-09-16T07:02:29.766Z,99.90
2017-09-16T07:04:57.527Z,99.90
2017-09-16T07:07:28.149Z,99.90
2017-09-16T07:09:56.226Z,99.90
2017-09-16T07:12:33.256Z,99.90
2017-09-16T07:14:59.185Z,99.90
2017-09-16T07:17:27.293Z,99.90
2017-09-16T07:19:53.217Z,99.90
2017-09-16T07:22:21.870Z,99.90
2017-09-16T07:24:47.811Z,99.90
2017-09-16T07:27:13.801Z,99.90
2017-09-16T07:29:40.485Z,99.90
2017-09-16T07:32:06.417Z,99.90
2017-09-16T07:34:32.354Z,99.90
2017-09-16T07:36:58.322Z,99.90
2017-09-16T07:39:25.018Z,99.90
2017-09-16T07:41:51.713Z,99.90
2017-09-16T07:44:18.382Z,99.90
2017-09-16T07:46:44.487Z,99.90
2017-09-16T07:49:14.897Z,99.90
2017-09-16T07:51:48.154Z,99.90
2017-09-16T07:54:15.226Z,99.90
2017-09-16T07:56:55.142Z,99.90
2017-09-16T07:59:26.177Z,99.90
2017-09-16T08:01:52.134Z,99.90
2017-09-16T08:04:18.688Z,99.90
2017-09-16T08:06:44.629Z,99.90
2017-09-16T08:09:11.325Z,99.90
2017-09-16T08:11:43.680Z,99.90
2017-09-16T08:14:15.230Z,99.90
2017-09-16T08:16:42.965Z,99.90
2017-09-16T08:19:08.930Z,99.90
2017-09-16T08:21:35.666Z,99.90
2017-09-16T08:24:02.340Z,99.90
2017-09-16T08:26:31.398Z,99.90
2017-09-16T08:28:57.326Z,99.90
2017-09-16T08:31:27.354Z,99.90
2017-09-16T08:33:54.029Z,99.90
2017-09-16T08:36:20.005Z,99.90
2017-09-16T08:38:51.694Z,99.90
2017-09-16T08:41:19.376Z,99.90
2017-09-16T08:43:48.537Z,99.90
2017-09-16T08:46:14.589Z,99.90
2017-09-16T08:48:45.849Z,99.90
2017-09-16T08:51:12.571Z,99.90
2017-09-16T08:53:39.522Z,99.90
2017-09-16T08:56:05.450Z,99.90
2017-09-16T08:58:32.381Z,99.90
2017-09-16T09:00:59.353Z,99.90
2017-09-16T09:03:25.266Z,99.90
2017-09-16T09:05:51.298Z,99.90
2017-09-16T09:08:17.334Z,99.90
2017-09-16T09:10:43.293Z,99.90
2017-09-16T09:13:16.285Z,99.90
2017-09-16T09:15:42.289Z,99.90
2017-09-16T09:18:10.971Z,99.90
2017-09-16T09:20:44.553Z,99.90
2017-09-16T09:23:12.533Z,99.90
2017-09-16T09:25:38.501Z,99.90
2017-09-16T09:28:07.799Z,99.90
2017-09-16T09:30:41.097Z,99.90
2017-09-16T09:33:12.830Z,99.90
2017-09-16T09:35:38.878Z,99.90
2017-09-16T09:38:05.553Z,99.90
2017-09-16T09:40:38.118Z,99.90
2017-09-16T09:43:05.142Z,99.90
2017-09-16T09:45:35.357Z,99.90
2017-09-16T09:48:01.300Z,99.90
2017-09-16T09:50:34.106Z,99.60
2017-09-16T09:53:01.129Z,99.30
2017-09-16T09:55:27.067Z,98.00
2017-09-16T09:57:55.782Z,95.70
2017-09-16T10:00:23.841Z,95.70
2017-09-16T10:02:51.646Z,95.90
2017-09-16T10:05:22.748Z,95.90
2017-09-16T10:07:50.539Z,93.30
2017-09-16T10:10:16.494Z,93.30
2017-09-16T10:12:42.519Z,94.00
2017-09-16T10:15:08.487Z,91.90
2017-09-16T10:17:34.517Z,90.60
2017-09-16T10:20:01.422Z,88.60
2017-09-16T10:22:27.450Z,87.90
2017-09-16T10:24:53.393Z,85.80
2017-09-16T10:27:19.326Z,83.70
2017-09-16T10:29:45.274Z,81.70
2017-09-16T10:32:11.220Z,78.70
2017-09-16T10:34:37.938Z,79.40
2017-09-16T10:37:03.882Z,79.20
2017-09-16T10:39:31.715Z,76.00
2017-09-16T10:41:57.692Z,76.60
2017-09-16T10:44:28.011Z,75.60
2017-09-16T10:46:53.992Z,75.50
2017-09-16T10:49:19.972Z,75.20
2017-09-16T10:51:46.667Z,70.10
2017-09-16T10:54:12.649Z,70.10
2017-09-16T10:56:42.643Z,66.70
2017-09-16T10:59:11.930Z,66.50
2017-09-16T11:01:37.854Z,66.30
2017-09-16T11:04:03.790Z,65.60
2017-09-16T11:06:31.460Z,67.00
2017-09-16T11:08:57.466Z,67.10
2017-09-16T11:11:23.429Z,67.50
2017-09-16T11:13:53.162Z,66.70
2017-09-16T11:16:19.835Z,65.80
2017-09-16T11:18:45.826Z,65.20
2017-09-16T11:21:13.502Z,62.70
2017-09-16T11:23:42.289Z,60.60
2017-09-16T11:26:17.855Z,61.30
2017-09-16T11:28:44.546Z,62.30
2017-09-16T11:31:16.975Z,62.20
2017-09-16T11:33:45.788Z,62.20
2017-09-16T11:36:28.901Z,62.20
2017-09-16T11:38:54.841Z,64.50
2017-09-16T11:41:20.851Z,66.00
2017-09-16T11:43:50.637Z,66.30
2017-09-16T11:46:23.078Z,65.60
2017-09-16T11:49:10.514Z,67.50
2017-09-16T11:51:36.459Z,69.00
2017-09-16T11:54:15.666Z,65.50
2017-09-16T11:56:42.725Z,64.20
2017-09-16T11:59:08.877Z,63.00
2017-09-16T12:01:48.447Z,65.50
2017-09-16T12:04:16.489Z,65.30
2017-09-16T12:07:02.606Z,66.30
2017-09-16T12:09:39.072Z,66.80
2017-09-16T12:12:08.651Z,65.20
2017-09-16T12:14:59.658Z,65.40
2017-09-16T12:17:27.414Z,62.20
2017-09-16T12:19:53.464Z,61.20
2017-09-16T12:22:23.570Z,59.50
2017-09-16T12:24:50.310Z,58.60
2017-09-16T12:27:34.205Z,58.50
2017-09-16T12:30:07.814Z,57.30
2017-09-16T12:32:34.840Z,54.80
2017-09-16T12:35:07.197Z,54.10
2017-09-16T12:37:36.007Z,53.10
2017-09-16T12:40:15.264Z,53.00
2017-09-16T12:43:02.181Z,51.30
2017-09-16T12:45:31.524Z,51.80
2017-09-16T12:47:59.296Z,51.80
2017-09-16T12:50:32.502Z,51.20
2017-09-16T12:53:03.004Z,51.10
2017-09-16T12:55:31.009Z,51.80
2017-09-16T12:58:22.163Z,51.20
2017-09-16T13:00:55.826Z,51.20
2017-09-16T13:03:30.341Z,50.30
2017-09-16T13:06:02.922Z,50.60
2017-09-16T13:08:30.893Z,50.40
2017-09-16T13:10:57.935Z,48.80
2017-09-16T13:13:24.692Z,48.50
2017-09-16T13:15:51.810Z,48.40
2017-09-16T13:18:19.919Z,48.60
2017-09-16T13:20:49.466Z,50.00
2017-09-16T13:23:16.452Z,51.40
2017-09-16T13:25:44.430Z,52.70
2017-09-16T13:28:16.766Z,52.60
2017-09-16T13:30:42.743Z,52.90
2017-09-16T13:33:29.597Z,54.60
2017-09-16T13:35:55.706Z,54.60
2017-09-16T13:38:21.667Z,57.10
2017-09-16T13:40:47.674Z,60.90
2017-09-16T13:43:17.297Z,64.70
2017-09-16T13:45:43.218Z,67.30
2017-09-16T13:48:09.155Z,68.80
2017-09-16T13:50:35.263Z,71.50
2017-09-16T13:53:01.215Z,74.00
2017-09-16T13:55:27.237Z,78.50
2017-09-16T13:57:53.246Z,86.20
2017-09-16T14:00:19.277Z,88.20
2017-09-16T14:02:45.212Z,91.30
2017-09-16T14:05:11.170Z,92.00
2017-09-16T14:07:37.122Z,93.60
2017-09-16T14:10:03.090Z,95.90
2017-09-16T14:12:29.052Z,96.60
2017-09-16T14:14:55.374Z,96.50
2017-09-16T14:17:21.334Z,96.00
2017-09-16T14:19:47.302Z,95.50
2017-09-16T14:22:13.278Z,95.70
2017-09-16T14:24:39.213Z,97.50
2017-09-16T14:27:08.934Z,96.90
2017-09-16T14:29:34.977Z,97.70
2017-09-16T14:32:01.913Z,97.40
2017-09-16T14:34:27.946Z,97.40
2017-09-16T14:36:54.429Z,98.20
2017-09-16T14:39:28.728Z,97.50
2017-09-16T14:41:56.680Z,98.40
2017-09-16T14:44:32.666Z,99.20
2017-09-16T14:47:09.322Z,99.90
2017-09-16T14:49:41.789Z,99.90
2017-09-16T14:52:08.725Z,99.90
2017-09-16T14:54:34.685Z,99.90
2017-09-16T14:57:16.942Z,99.90
2017-09-16T14:59:43.005Z,99.90
2017-09-16T15:02:08.991Z,99.90
2017-09-16T15:04:40.934Z,99.90
2017-09-16T15:07:08.959Z,99.90
2017-09-16T15:09:50.369Z,99.90
2017-09-16T15:12:16.336Z,99.90
2017-09-16T15:14:59.533Z,99.90
2017-09-16T15:17:41.057Z,99.90
2017-09-16T15:20:07.765Z,99.90
2017-09-16T15:22:42.147Z,99.90
2017-09-16T15:25:08.909Z,99.90
2017-09-16T15:27:40.538Z,99.90
2017-09-16T15:30:09.712Z,99.90
2017-09-16T15:32:52.185Z,98.60
2017-09-16T15:35:20.249Z,98.60
2017-09-16T15:37:46.189Z,99.40
2017-09-16T15:40:14.226Z,99.90
2017-09-16T15:42:49.693Z,99.90
2017-09-16T15:45:19.199Z,99.90
2017-09-16T15:48:07.596Z,96.70
2017-09-16T15:50:49.338Z,96.60
2017-09-16T15:53:30.550Z,95.90
2017-09-16T15:55:56.517Z,95.00
2017-09-16T15:58:29.036Z,94.70
2017-09-16T16:00:58.881Z,94.70
2017-09-16T16:03:26.906Z,95.00
2017-09-16T16:06:17.359Z,95.50
2017-09-16T16:08:44.327Z,96.00
2017-09-16T16:11:25.721Z,96.50
2017-09-16T16:13:55.965Z,96.50
2017-09-16T16:16:30.037Z,96.10
2017-09-16T16:21:50.597Z,96.30
2017-09-16T16:24:16.581Z,96.60
2017-09-16T16:26:57.520Z,97.00
2017-09-16T16:29:23.534Z,97.00
2017-09-16T16:32:10.647Z,97.50
2017-09-16T16:34:38.657Z,96.80
2017-09-16T16:37:07.325Z,95.60
2017-09-16T16:39:33.278Z,95.50
2017-09-16T16:42:04.714Z,95.30
2017-09-16T16:44:30.754Z,95.30
2017-09-16T16:47:09.582Z,95.40
2017-09-16T16:49:36.318Z,95.30
2017-09-16T16:52:02.266Z,95.30
2017-09-16T16:54:35.534Z,95.10
2017-09-16T16:57:05.079Z,95.10
2017-09-16T16:59:31.065Z,95.10
2017-09-16T17:01:57.083Z,93.70
2017-09-16T17:04:23.025Z,93.60
2017-09-16T17:06:48.945Z,95.60
2017-09-16T17:09:14.874Z,97.00
2017-09-16T17:11:40.836Z,97.00
2017-09-16T17:14:08.601Z,95.60
2017-09-16T17:16:35.270Z,94.50
2017-09-16T17:19:01.198Z,94.50
2017-09-16T17:21:27.170Z,95.00
2017-09-16T17:23:55.172Z,94.50
2017-09-16T17:26:26.902Z,95.30
2017-09-16T17:29:04.225Z,95.30
2017-09-16T17:31:34.051Z,95.70
2017-09-16T17:34:15.553Z,98.20
2017-09-16T17:36:55.485Z,98.20
2017-09-16T17:39:21.465Z,99.10
2017-09-16T17:41:47.518Z,99.90
2017-09-16T17:44:21.861Z,99.90
2017-09-16T17:46:48.909Z,99.90
2017-09-16T17:49:14.846Z,99.90
2017-09-16T17:51:51.420Z,99.90
2017-09-16T17:54:20.785Z,99.90
2017-09-16T17:56:56.044Z,99.90
2017-09-16T17:59:29.958Z,99.90
2017-09-16T18:02:08.562Z,99.90
2017-09-16T18:04:35.305Z,99.90
2017-09-16T18:07:06.078Z,99.90
2017-09-16T18:09:35.856Z,99.90
2017-09-16T18:12:01.865Z,99.90
2017-09-16T18:14:28.869Z,99.90
2017-09-16T18:16:56.346Z,99.90
2017-09-16T18:19:22.308Z,99.90
2017-09-16T18:21:48.357Z,99.90
2017-09-16T18:24:32.359Z,99.90
2017-09-16T18:27:08.997Z,99.90
2017-09-16T18:29:36.018Z,99.90
2017-09-16T18:32:18.702Z,99.90
2017-09-16T18:34:49.249Z,99.90
2017-09-16T18:37:15.230Z,99.90
2017-09-16T18:39:44.375Z,99.90
2017-09-16T18:42:10.442Z,99.90
2017-09-16T18:44:40.733Z,99.90
2017-09-16T18:47:06.769Z,99.90
2017-09-16T18:49:57.421Z,99.90
2017-09-16T18:52:26.989Z,99.90
2017-09-16T18:55:04.465Z,99.90
2017-09-16T18:57:30.542Z,99.90
2017-09-16T18:59:56.470Z,99.90
2017-09-16T19:02:29.735Z,99.90
2017-09-16T19:05:07.223Z,99.90
2017-09-16T19:07:55.713Z,99.90
2017-09-16T19:10:36.512Z,99.90
2017-09-16T19:13:10.070Z,99.90
2017-09-16T19:15:36.070Z,99.90
2017-09-16T19:18:06.010Z,99.90
2017-09-16T19:20:36.703Z,99.90
2017-09-16T19:23:03.693Z,99.90
2017-09-16T19:25:40.829Z,99.90
2017-09-16T19:28:11.263Z,99.90
2017-09-16T19:30:44.813Z,99.90
2017-09-16T19:33:24.759Z,99.90
2017-09-16T19:35:58.245Z,99.90
2017-09-16T19:38:25.257Z,99.90
2017-09-16T19:40:51.301Z,99.90
2017-09-16T19:43:25.644Z,99.90
2017-09-16T19:45:56.389Z,99.90
2017-09-16T19:48:24.420Z,99.90
2017-09-16T19:51:11.079Z,99.90
2017-09-16T19:53:39.089Z,99.90
2017-09-16T19:56:12.210Z,99.90
2017-09-16T19:58:38.954Z,99.90
2017-09-16T20:01:05.681Z,99.90
2017-09-16T20:03:32.354Z,99.90
2017-09-16T20:06:09.139Z,99.90
2017-09-16T20:08:45.815Z,99.90
2017-09-16T20:11:16.094Z,99.90
2017-09-16T20:16:39.545Z,99.90
2017-09-16T20:19:05.482Z,99.90
2017-09-16T20:21:31.530Z,99.90
2017-09-16T20:24:08.605Z,99.90
2017-09-16T20:26:34.626Z,99.90
2017-09-16T20:29:00.714Z,99.90
2017-09-16T20:31:32.205Z,99.90
2017-09-16T20:33:58.209Z,99.90
2017-09-16T20:36:24.130Z,99.90
2017-09-16T20:38:50.068Z,99.90
2017-09-16T20:41:15.985Z,99.90
2017-09-16T20:43:47.716Z,99.90
2017-09-16T20:46:25.337Z,99.90
2017-09-16T20:48:55.089Z,99.90
2017-09-16T20:51:21.125Z,99.90
2017-09-16T20:54:07.289Z,99.90
2017-09-16T20:56:33.241Z,99.90
2017-09-16T20:58:59.265Z,99.90
2017-09-16T21:01:25.281Z,99.90
2017-09-16T21:04:01.692Z,99.90
2017-09-16T21:06:34.234Z,99.90
2017-09-16T21:09:00.267Z,99.90
2017-09-16T21:11:26.288Z,99.90
2017-09-16T21:13:53.247Z,99.90
2017-09-16T21:16:19.289Z,99.90
2017-09-16T21:18:55.584Z,99.90
2017-09-16T21:21:35.126Z,99.90
2017-09-16T21:27:00.342Z,99.90
2017-09-16T21:32:30.541Z,99.90
2017-09-16T21:35:08.037Z,99.90
2017-09-16T21:37:56.432Z,99.90
2017-09-16T21:43:16.514Z,99.90
2017-09-16T21:45:55.508Z,99.90
2017-09-16T21:48:28.094Z,99.90
2017-09-16T21:50:58.717Z,99.90
2017-09-16T21:53:29.132Z,99.90
2017-09-16T21:56:19.787Z,99.90
2017-09-16T21:58:50.046Z,99.90
2017-09-16T22:01:23.306Z,99.90
2017-09-16T22:03:50.086Z,99.90
2017-09-16T22:06:21.649Z,99.90
2017-09-16T22:08:50.340Z,99.90
2017-09-16T22:11:37.721Z,99.90
2017-09-16T22:14:07.674Z,99.90
2017-09-16T22:16:38.397Z,99.90
2017-09-16T22:19:17.046Z,99.90
2017-09-16T22:21:46.830Z,99.90
2017-09-16T22:24:12.871Z,99.90
2017-09-16T22:26:39.570Z,99.90
2017-09-16T22:29:13.031Z,99.90
2017-09-16T22:31:40.770Z,99.90
2017-09-16T22:34:15.257Z,99.90
2017-09-16T22:36:59.706Z,99.90
2017-09-16T22:39:29.389Z,99.90
2017-09-16T22:42:13.870Z,99.90
2017-09-16T22:44:40.879Z,99.90
2017-09-16T22:47:15.718Z,99.90
2017-09-16T22:49:53.211Z,99.90
2017-09-16T22:52:25.681Z,99.90
2017-09-16T22:54:56.190Z,99.90
2017-09-16T22:57:24.194Z,99.90
2017-09-16T22:59:54.403Z,99.90
2017-09-16T23:02:21.169Z,99.90
2017-09-16T23:04:51.878Z,99.90
2017-09-16T23:07:22.752Z,99.90
2017-09-16T23:09:55.306Z,99.90
2017-09-16T23:12:22.083Z,99.90
2017-09-16T23:14:49.101Z,99.90
2017-09-16T23:17:19.062Z,99.90
2017-09-16T23:19:48.793Z,99.90
2017-09-16T23:22:21.326Z,99.90
2017-09-16T23:24:48.053Z,99.90
2017-09-16T23:27:26.942Z,99.90
2017-09-16T23:29:56.481Z,99.90
2017-09-16T23:32:40.870Z,99.90
2017-09-16T23:35:13.314Z,99.90
2017-09-16T23:37:41.095Z,99.90
2017-09-16T23:40:11.289Z,99.90
2017-09-16T23:42:37.335Z,99.90
2017-09-16T23:45:06.011Z,99.90
2017-09-16T23:47:32.038Z,99.90
2017-09-16T23:49:58.066Z,99.90
2017-09-16T23:52:24.098Z,99.90
2017-09-16T23:57:49.650Z,99.90
